Time;durP1;ratioP1;P1;durP2;ratioP2;P2;SDS_P1;SDS_P2;PMS_P1;PMS_P2;Temp;Humidity;BMP_temperature;BMP_pressure;BME280_temperature;BME280_humidity;BME280_pressure;Samples;Min_cycle;Max_cycle;Signal;HPM_P1;HPM_P2
2021/06/01 00:01:26;;;;;;;21.85;15.60;;;10.00;99.90;;;;;;5018859;28;20041;-73
2021/06/01 00:03:53;;;;;;;18.50;11.82;;;9.90;99.90;;;;;;5019727;28;20556;-72
2021/06/01 00:06:19;;;;;;;13.13;10.27;;;9.90;99.90;;;;;;5000867;28;20038;-72
2021/06/01 00:08:46;;;;;;;12.85;9.15;;;9.90;99.90;;;;;;5012525;28;20045;-72
2021/06/01 00:11:13;;;;;;;17.13;8.37;;;10.00;99.90;;;;;;4995837;28;20042;-72
2021/06/01 00:13:40;;;;;;;9.50;6.82;;;10.10;99.90;;;;;;5005873;28;20073;-72
2021/06/01 00:16:07;;;;;;;8.38;7.57;;;10.20;99.90;;;;;;4993596;28;20050;-73
2021/06/01 00:18:36;;;;;;;8.55;6.38;;;10.30;99.90;;;;;;5006352;28;20080;-73
2021/06/01 00:21:04;;;;;;;9.02;6.50;;;10.30;99.90;;;;;;5012943;28;20058;-73
2021/06/01 00:23:32;;;;;;;10.98;6.82;;;10.20;99.90;;;;;;5013234;28;20050;-73
2021/06/01 00:25:58;;;;;;;10.60;6.60;;;10.10;99.90;;;;;;5009725;28;20042;-74
2021/06/01 00:28:24;;;;;;;8.70;5.82;;;10.00;99.90;;;;;;5012185;28;20046;-72
2021/06/01 00:30:50;;;;;;;11.13;6.13;;;10.10;99.90;;;;;;5007363;28;20045;-72
2021/06/01 00:33:17;;;;;;;11.18;7.03;;;10.00;99.90;;;;;;5012653;28;20041;-72
2021/06/01 00:35:44;;;;;;;6.60;5.13;;;10.00;99.90;;;;;;5012041;28;20056;-72
2021/06/01 00:38:10;;;;;;;7.60;5.40;;;10.00;99.90;;;;;;5012601;28;20464;-72
2021/06/01 00:40:36;;;;;;;6.50;5.35;;;10.10;99.90;;;;;;4995482;28;20050;-71
2021/06/01 00:43:03;;;;;;;6.03;4.32;;;10.20;99.90;;;;;;5001655;28;20053;-73
2021/06/01 00:45:29;;;;;;;9.07;6.53;;;10.30;99.90;;;;;;5012501;28;20513;-72
2021/06/01 00:47:56;;;;;;;7.93;6.30;;;10.30;99.90;;;;;;5012403;28;20069;-72
2021/06/01 00:50:24;;;;;;;9.90;7.32;;;10.40;99.90;;;;;;5012705;28;20053;-72
2021/06/01 00:52:51;;;;;;;11.05;8.40;;;10.40;99.90;;;;;;5012448;28;20544;-72
2021/06/01 00:55:18;;;;;;;8.10;6.82;;;10.30;99.90;;;;;;5010773;28;20478;-72
2021/06/01 00:57:45;;;;;;;10.73;7.00;;;10.30;99.90;;;;;;5006844;28;20042;-72
2021/06/01 01:00:24;;;;;;;12.63;7.88;;;10.10;99.90;;;;;;5016519;28;20053;-72
2021/06/01 01:02:51;;;;;;;12.50;7.73;;;9.90;99.90;;;;;;5010821;28;20050;-73
2021/06/01 01:05:19;;;;;;;9.17;7.00;;;9.80;99.90;;;;;;5012727;28;20058;-74
2021/06/01 01:07:58;;;;;;;13.77;7.73;;;9.80;99.90;;;;;;5015669;28;20096;-72
2021/06/01 01:10:27;;;;;;;9.43;7.77;;;9.80;99.90;;;;;;5016067;28;20049;-72
2021/06/01 01:12:59;;;;;;;9.13;7.73;;;9.70;99.90;;;;;;5015820;28;20046;-72
2021/06/01 01:15:26;;;;;;;9.35;6.78;;;9.80;99.90;;;;;;4997204;28;20050;-73
2021/06/01 01:17:55;;;;;;;9.32;6.97;;;9.90;99.90;;;;;;5003743;28;20103;-72
2021/06/01 01:20:31;;;;;;;11.60;7.20;;;10.00;99.90;;;;;;5015424;28;20391;-71
2021/06/01 01:22:58;;;;;;;14.00;7.53;;;10.10;99.90;;;;;;5016231;28;20501;-73
2021/06/01 01:25:34;;;;;;;14.63;8.63;;;10.10;99.90;;;;;;5015296;28;20065;-73
2021/06/01 01:28:19;;;;;;;11.80;7.97;;;10.10;99.90;;;;;;5015622;28;20498;-72
2021/06/01 01:30:47;;;;;;;12.07;7.57;;;9.90;99.90;;;;;;5012862;28;20490;-71
2021/06/01 01:33:22;;;;;;;9.07;7.13;;;9.80;99.90;;;;;;5015443;28;20049;-73
2021/06/01 01:35:51;;;;;;;9.82;7.20;;;9.90;99.90;;;;;;5015288;28;20042;-72
2021/06/01 01:38:21;;;;;;;11.20;7.72;;;9.90;99.90;;;;;;5015641;28;20042;-72
2021/06/01 01:40:48;;;;;;;13.10;7.50;;;9.90;99.90;;;;;;5014080;28;20057;-72
2021/06/01 01:43:17;;;;;;;8.77;6.47;;;9.90;99.90;;;;;;5015238;28;20037;-72
2021/06/01 01:45:48;;;;;;;11.40;7.23;;;9.70;99.90;;;;;;5008124;28;20053;-72
2021/06/01 01:51:12;;;;;;;11.07;7.30;;;9.40;99.90;;;;;;5011010;28;20065;-71
2021/06/01 01:53:47;;;;;;;9.80;6.83;;;9.50;99.90;;;;;;5014275;28;20133;-72
2021/06/01 01:56:15;;;;;;;8.53;6.80;;;9.60;99.90;;;;;;5015322;28;20045;-72
2021/06/01 01:58:42;;;;;;;7.47;5.87;;;9.60;99.90;;;;;;5014909;28;20056;-72
2021/06/01 02:01:09;;;;;;;8.00;5.13;;;9.60;99.90;;;;;;5014843;28;20046;-72
2021/06/01 02:03:36;;;;;;;7.93;5.80;;;9.50;99.90;;;;;;5012042;28;20042;-72
2021/06/01 02:06:04;;;;;;;7.30;5.53;;;9.40;99.90;;;;;;4995382;28;20046;-72
2021/06/01 02:08:30;;;;;;;8.98;5.30;;;9.40;99.90;;;;;;5007366;28;20053;-72
2021/06/01 02:10:56;;;;;;;9.17;5.80;;;9.40;99.90;;;;;;5015319;28;20445;-72
2021/06/01 02:13:22;;;;;;;7.23;5.50;;;9.30;99.90;;;;;;5011201;28;20549;-72
2021/06/01 02:15:48;;;;;;;7.83;5.13;;;9.30;99.90;;;;;;4997501;28;20053;-72
2021/06/01 02:18:16;;;;;;;8.33;5.90;;;9.20;99.90;;;;;;5015140;28;20042;-72
2021/06/01 02:20:44;;;;;;;11.60;6.07;;;9.20;99.90;;;;;;5013910;28;20058;-72
2021/06/01 02:26:03;;;;;;;10.63;6.13;;;9.20;99.90;;;;;;5009382;28;20393;-72
2021/06/01 02:28:35;;;;;;;14.15;7.03;;;9.30;99.90;;;;;;5008845;28;20108;-72
2021/06/01 02:31:04;;;;;;;11.88;6.75;;;9.40;99.90;;;;;;5015254;28;20054;-72
2021/06/01 02:33:32;;;;;;;8.73;5.43;;;9.50;99.90;;;;;;5015501;28;20046;-73
2021/06/01 02:36:00;;;;;;;8.20;5.47;;;9.30;99.90;;;;;;5015119;28;20073;-72
2021/06/01 02:38:29;;;;;;;6.67;5.63;;;9.10;99.90;;;;;;5015309;28;20406;-72
2021/06/01 02:40:56;;;;;;;8.17;5.73;;;9.10;99.90;;;;;;5015292;28;20083;-72
2021/06/01 02:43:23;;;;;;;8.47;5.00;;;9.10;99.90;;;;;;5014143;28;20050;-71
2021/06/01 02:45:50;;;;;;;7.77;5.17;;;9.20;99.90;;;;;;5014874;28;20046;-72
2021/06/01 02:48:20;;;;;;;6.13;5.10;;;9.20;99.90;;;;;;5015044;28;20046;-72
2021/06/01 02:50:48;;;;;;;8.30;5.33;;;9.20;99.90;;;;;;5014263;28;20564;-72
2021/06/01 02:53:15;;;;;;;8.30;6.17;;;9.10;99.90;;;;;;5013899;28;20672;-72
2021/06/01 02:55:43;;;;;;;9.67;6.27;;;9.00;99.90;;;;;;5014005;28;20101;-71
2021/06/01 02:58:11;;;;;;;10.53;6.30;;;9.00;99.90;;;;;;5014041;28;20747;-72
2021/06/01 03:00:38;;;;;;;7.77;5.60;;;9.00;99.90;;;;;;5014164;28;20060;-71
2021/06/01 03:03:06;;;;;;;6.50;4.67;;;9.10;99.90;;;;;;5014317;28;20092;-72
2021/06/01 03:05:33;;;;;;;8.23;5.20;;;9.10;99.90;;;;;;5014214;28;20054;-72
2021/06/01 03:08:21;;;;;;;6.63;5.50;;;9.10;99.90;;;;;;5013638;28;20042;-72
2021/06/01 03:10:48;;;;;;;12.00;5.73;;;9.10;99.90;;;;;;5013953;28;20046;-72
2021/06/01 03:13:15;;;;;;;6.20;5.60;;;9.10;99.90;;;;;;5032837;28;20049;-71
2021/06/01 03:15:41;;;;;;;8.73;6.07;;;9.10;99.90;;;;;;5033728;28;20049;-72
2021/06/01 03:18:07;;;;;;;6.73;5.90;;;8.90;99.90;;;;;;5019456;28;20045;-72
2021/06/01 03:20:33;;;;;;;9.47;6.20;;;8.90;99.90;;;;;;5012348;28;20050;-72
2021/06/01 03:22:59;;;;;;;8.87;6.13;;;8.80;99.90;;;;;;5005907;28;20057;-72
2021/06/01 03:25:25;;;;;;;9.10;6.53;;;8.80;99.90;;;;;;5013406;28;20099;-72
2021/06/01 03:27:53;;;;;;;6.70;6.00;;;8.70;99.90;;;;;;5014105;28;20099;-72
2021/06/01 03:30:19;;;;;;;8.47;6.20;;;8.70;99.90;;;;;;5013641;28;20112;-72
2021/06/01 03:32:45;;;;;;;7.60;5.83;;;8.70;99.90;;;;;;5014179;28;20045;-72
2021/06/01 03:35:11;;;;;;;8.23;5.93;;;8.80;99.90;;;;;;5004110;28;20490;-73
2021/06/01 03:37:37;;;;;;;10.00;6.07;;;8.90;99.90;;;;;;5001894;28;20486;-73
2021/06/01 03:40:05;;;;;;;7.70;5.57;;;8.90;99.90;;;;;;5013580;28;20363;-72
2021/06/01 03:42:31;;;;;;;7.43;5.97;;;8.90;99.90;;;;;;5000593;28;20046;-73
2021/06/01 03:44:59;;;;;;;6.73;6.03;;;8.90;99.90;;;;;;5010666;28;20461;-71
2021/06/01 03:47:25;;;;;;;7.67;5.27;;;9.10;99.90;;;;;;5008901;28;20110;-72
2021/06/01 03:49:51;;;;;;;10.47;5.83;;;9.10;99.90;;;;;;4994180;28;20050;-72
2021/06/01 03:52:17;;;;;;;5.73;5.13;;;9.00;99.90;;;;;;4998779;28;20037;-72
2021/06/01 03:54:43;;;;;;;9.20;5.93;;;8.90;99.90;;;;;;5008934;28;20514;-72
2021/06/01 03:57:11;;;;;;;10.17;6.40;;;8.90;99.90;;;;;;5001653;28;20053;-72
2021/06/01 03:59:37;;;;;;;6.27;5.63;;;9.00;99.90;;;;;;5012961;28;20045;-72
2021/06/01 04:02:05;;;;;;;7.57;5.70;;;9.00;99.90;;;;;;5013353;28;20046;-71
2021/06/01 04:04:31;;;;;;;8.87;5.63;;;9.20;99.90;;;;;;5013352;28;20042;-72
2021/06/01 04:06:57;;;;;;;8.53;5.97;;;9.20;99.90;;;;;;5012723;28;20049;-71
2021/06/01 04:09:24;;;;;;;9.17;6.23;;;9.40;99.90;;;;;;5009046;28;20038;-72
2021/06/01 04:11:50;;;;;;;7.27;5.47;;;9.50;99.90;;;;;;5009291;28;20512;-74
2021/06/01 04:14:18;;;;;;;11.07;6.10;;;9.60;99.90;;;;;;5012516;28;20485;-73
2021/06/01 04:16:44;;;;;;;6.83;5.57;;;9.80;99.90;;;;;;5012363;28;20555;-72
2021/06/01 04:19:12;;;;;;;8.70;5.87;;;10.10;99.90;;;;;;5012291;28;20486;-71
2021/06/01 04:21:39;;;;;;;9.00;5.72;;;10.30;99.90;;;;;;5012721;28;20046;-74
2021/06/01 04:24:07;;;;;;;9.77;6.60;;;10.40;99.90;;;;;;5012100;28;20074;-72
2021/06/01 04:26:33;;;;;;;7.18;5.70;;;10.50;99.90;;;;;;5012547;28;20053;-73
2021/06/01 04:28:59;;;;;;;11.10;5.95;;;10.50;99.90;;;;;;5012024;28;20482;-73
2021/06/01 04:31:25;;;;;;;9.68;5.90;;;10.60;99.90;;;;;;5012393;28;20052;-73
2021/06/01 04:33:52;;;;;;;9.75;5.75;;;10.60;99.90;;;;;;5010429;28;20050;-72
2021/06/01 04:36:19;;;;;;;7.72;6.05;;;10.80;99.90;;;;;;5012275;28;20041;-72
2021/06/01 04:38:45;;;;;;;11.68;6.43;;;11.00;99.90;;;;;;5011916;28;20052;-72
2021/06/01 04:41:12;;;;;;;9.55;5.93;;;11.20;99.90;;;;;;5012647;28;20111;-73
2021/06/01 04:43:38;;;;;;;8.55;6.25;;;11.30;99.90;;;;;;5011809;28;20050;-73
2021/06/01 04:46:04;;;;;;;8.13;5.32;;;11.50;99.90;;;;;;5012339;28;20413;-72
2021/06/01 04:48:30;;;;;;;7.55;5.75;;;11.60;99.90;;;;;;5012497;28;20053;-72
2021/06/01 04:50:57;;;;;;;10.93;6.50;;;11.70;99.90;;;;;;5012165;28;20133;-74
2021/06/01 04:53:24;;;;;;;13.32;9.57;;;11.80;99.90;;;;;;5012347;28;20049;-73
2021/06/01 04:55:50;;;;;;;24.65;12.20;;;12.00;99.90;;;;;;5012378;28;20057;-74
2021/06/01 04:58:16;;;;;;;24.83;13.65;;;12.10;99.90;;;;;;5011237;28;20438;-72
2021/06/01 05:00:43;;;;;;;32.08;18.30;;;12.30;99.90;;;;;;5012279;28;20128;-72
2021/06/01 05:03:09;;;;;;;24.77;12.85;;;12.50;99.90;;;;;;5012585;28;20073;-73
2021/06/01 05:05:35;;;;;;;41.15;22.98;;;12.70;99.90;;;;;;5010846;28;20092;-72
2021/06/01 05:08:03;;;;;;;37.95;20.55;;;12.70;99.90;;;;;;5001754;28;20103;-72
2021/06/01 05:10:31;;;;;;;24.77;16.17;;;13.00;99.90;;;;;;5012439;28;20045;-72
2021/06/01 05:12:57;;;;;;;39.10;23.10;;;13.00;99.90;;;;;;5012078;28;20050;-72
2021/06/01 05:15:24;;;;;;;26.73;16.30;;;13.20;99.90;;;;;;5012466;28;20046;-73
2021/06/01 05:17:50;;;;;;;7.13;6.00;;;13.30;99.90;;;;;;5012236;28;20100;-73
2021/06/01 05:20:16;;;;;;;18.38;11.48;;;13.30;99.90;;;;;;4994575;28;20454;-72
2021/06/01 05:22:43;;;;;;;22.00;13.57;;;13.40;99.90;;;;;;5011900;28;20061;-74
2021/06/01 05:25:11;;;;;;;30.38;16.77;;;13.60;99.90;;;;;;5011820;28;20069;-72
2021/06/01 05:27:38;;;;;;;62.70;34.35;;;13.70;99.90;;;;;;5012666;28;20132;-73
2021/06/01 05:30:06;;;;;;;8.57;6.75;;;13.80;99.90;;;;;;5011899;28;20402;-73
2021/06/01 05:33:09;;;;;;;17.42;9.80;;;13.90;99.90;;;;;;5011858;28;20080;-73
2021/06/01 05:35:39;;;;;;;13.23;9.00;;;13.90;99.90;;;;;;5011487;28;20042;-72
2021/06/01 05:38:13;;;;;;;23.10;14.40;;;14.20;99.90;;;;;;5002863;28;20073;-73
2021/06/01 05:40:39;;;;;;;23.02;13.90;;;14.50;99.90;;;;;;4994668;28;20482;-73
2021/06/01 05:43:10;;;;;;;20.05;13.20;;;14.70;99.90;;;;;;5011592;28;20053;-72
2021/06/01 05:45:37;;;;;;;24.33;16.80;;;14.90;99.90;;;;;;5014576;28;20184;-73
2021/06/01 05:48:04;;;;;;;35.28;19.95;;;14.90;99.90;;;;;;5015095;28;20060;-73
2021/06/01 05:50:30;;;;;;;30.65;18.52;;;15.10;99.90;;;;;;5015023;28;20054;-72
2021/06/01 05:52:58;;;;;;;17.10;11.20;;;15.40;99.90;;;;;;5014550;28;20065;-72
2021/06/01 05:55:25;;;;;;;32.40;18.25;;;15.50;99.90;;;;;;5014785;28;20452;-75
2021/06/01 05:57:54;;;;;;;30.08;16.52;;;15.60;99.90;;;;;;5014883;28;20050;-72
2021/06/01 06:00:27;;;;;;;31.38;17.88;;;15.70;99.90;;;;;;5014441;28;20141;-74
2021/06/01 06:02:54;;;;;;;15.50;8.68;;;15.70;99.90;;;;;;5014367;28;20049;-73
2021/06/01 06:05:20;;;;;;;27.45;15.45;;;15.80;99.90;;;;;;5014515;28;20050;-71
2021/06/01 06:07:46;;;;;;;20.20;12.35;;;16.00;99.90;;;;;;4996051;28;20104;-71
2021/06/01 06:10:15;;;;;;;18.15;13.63;;;16.20;99.90;;;;;;4994978;28;20112;-71
2021/06/01 06:12:42;;;;;;;12.57;9.55;;;16.40;99.90;;;;;;4999167;28;20041;-71
2021/06/01 06:15:13;;;;;;;13.82;9.30;;;16.70;99.90;;;;;;5014471;28;20042;-73
2021/06/01 06:17:44;;;;;;;19.25;11.02;;;16.90;99.90;;;;;;5014349;28;20490;-73
2021/06/01 06:20:14;;;;;;;25.67;16.80;;;17.30;99.90;;;;;;5014519;28;20057;-72
2021/06/01 06:22:41;;;;;;;17.63;11.05;;;17.60;99.90;;;;;;5014299;28;20138;-72
2021/06/01 06:25:12;;;;;;;26.40;14.90;;;17.50;99.90;;;;;;5015068;28;20050;-71
2021/06/01 06:27:40;;;;;;;12.48;9.57;;;17.80;99.90;;;;;;5014624;28;20112;-73
2021/06/01 06:30:11;;;;;;;19.77;10.90;;;18.10;99.90;;;;;;5014473;28;20050;-72
2021/06/01 06:32:38;;;;;;;24.55;13.40;;;18.40;99.90;;;;;;5006005;28;20061;-73
2021/06/01 06:35:13;;;;;;;14.82;9.20;;;18.60;99.90;;;;;;4995246;28;20490;-72
2021/06/01 06:37:39;;;;;;;12.73;9.38;;;18.90;99.90;;;;;;4994838;28;20046;-72
2021/06/01 06:40:08;;;;;;;12.23;7.70;;;19.10;99.90;;;;;;5000529;28;20051;-73
2021/06/01 06:42:35;;;;;;;7.95;6.63;;;19.30;99.90;;;;;;5015090;28;20053;-73
2021/06/01 06:45:01;;;;;;;16.98;11.07;;;19.40;99.90;;;;;;5015508;28;20093;-72
2021/06/01 06:47:39;;;;;;;9.10;7.18;;;19.50;99.90;;;;;;5014795;28;20119;-74
2021/06/01 06:50:08;;;;;;;22.60;12.95;;;19.80;99.90;;;;;;5013155;28;20482;-73
2021/06/01 06:52:37;;;;;;;14.90;8.15;;;20.10;99.90;;;;;;5014792;28;20494;-73
2021/06/01 06:55:08;;;;;;;7.50;6.05;;;20.60;99.90;;;;;;5012799;28;20512;-73
2021/06/01 06:57:35;;;;;;;;;;;21.00;99.90;;;;;;5014508;28;20489;-73
2021/06/01 07:00:01;;;;;;;7.18;5.75;;;21.40;99.90;;;;;;5014902;28;19929;-72
2021/06/01 07:02:29;;;;;;;8.23;6.00;;;21.70;99.90;;;;;;5014547;28;20046;-72
2021/06/01 07:04:55;;;;;;;10.52;7.20;;;22.00;98.90;;;;;;5014427;28;20072;-73
2021/06/01 07:07:23;;;;;;;7.63;6.10;;;22.40;98.70;;;;;;5000433;28;20050;-73
2021/06/01 07:09:49;;;;;;;8.55;5.57;;;22.70;97.80;;;;;;4997152;28;20049;-73
2021/06/01 07:12:16;;;;;;;6.95;5.45;;;23.40;94.90;;;;;;4995217;28;20197;-73
2021/06/01 07:14:50;;;;;;;10.55;7.90;;;23.50;92.50;;;;;;4994824;28;20104;-74
2021/06/01 07:17:17;;;;;;;10.27;7.57;;;23.20;89.20;;;;;;4995670;28;20082;-73
2021/06/01 07:19:45;;;;;;;11.38;7.95;;;22.80;90.30;;;;;;4995441;28;20050;-72
2021/06/01 07:22:14;;;;;;;9.05;6.45;;;22.70;90.70;;;;;;4994501;28;20178;-73
2021/06/01 07:24:41;;;;;;;7.55;5.65;;;22.40;91.80;;;;;;4994704;28;20043;-73
2021/06/01 07:27:07;;;;;;;15.95;10.45;;;22.20;93.00;;;;;;4994229;28;20050;-73
2021/06/01 07:29:33;;;;;;;5.55;4.88;;;22.40;92.80;;;;;;5003471;28;20045;-71
2021/06/01 07:31:59;;;;;;;6.15;5.40;;;22.60;93.10;;;;;;4997752;28;20046;-72
2021/06/01 07:34:26;;;;;;;5.65;4.18;;;23.00;92.80;;;;;;4994553;28;20571;-73
2021/06/01 07:36:52;;;;;;;5.82;3.97;;;23.30;90.80;;;;;;4994188;28;20050;-73
2021/06/01 07:39:18;;;;;;;7.15;4.13;;;23.50;88.20;;;;;;5009383;28;20049;-73
2021/06/01 07:41:45;;;;;;;7.88;4.15;;;23.30;85.50;;;;;;5014127;28;20138;-72
2021/06/01 07:44:12;;;;;;;4.57;3.60;;;23.70;85.60;;;;;;5014342;28;20413;-73
2021/06/01 07:46:38;;;;;;;6.20;4.38;;;23.80;81.60;;;;;;5013145;28;20046;-74
2021/06/01 07:49:04;;;;;;;6.15;3.83;;;24.00;79.50;;;;;;5013761;28;20049;-73
2021/06/01 07:51:33;;;;;;;5.38;3.78;;;24.00;79.50;;;;;;5013750;28;20457;-73
2021/06/01 07:54:03;;;;;;;6.03;3.63;;;24.30;77.40;;;;;;4999870;28;20097;-73
2021/06/01 07:56:30;;;;;;;5.00;3.45;;;24.50;76.00;;;;;;4993994;28;20387;-73
2021/06/01 07:58:58;;;;;;;3.30;3.00;;;24.50;73.80;;;;;;5000690;28;20046;-73
2021/06/01 08:01:24;;;;;;;5.90;3.50;;;24.20;71.60;;;;;;4993913;28;20105;-73
2021/06/01 08:03:51;;;;;;;4.30;3.30;;;24.50;74.60;;;;;;4993941;28;20050;-73
2021/06/01 08:06:17;;;;;;;4.95;4.45;;;25.10;74.50;;;;;;4992980;28;20047;-72
2021/06/01 08:08:43;;;;;;;4.78;3.55;;;25.40;69.70;;;;;;4993777;28;20050;-73
2021/06/01 08:11:10;;;;;;;7.18;4.72;;;25.90;68.30;;;;;;5009337;28;20045;-73
2021/06/01 08:13:36;;;;;;;7.90;5.40;;;26.50;64.20;;;;;;5013396;28;20136;-73
2021/06/01 08:16:04;;;;;;;4.90;4.40;;;27.10;67.70;;;;;;5012994;28;20060;-73
2021/06/01 08:18:33;;;;;;;5.13;4.50;;;27.60;65.00;;;;;;5006335;28;20042;-73
2021/06/01 08:21:05;;;;;;;6.50;3.78;;;28.00;63.30;;;;;;4993461;28;20046;-73
2021/06/01 08:23:31;;;;;;;5.43;3.55;;;28.30;59.90;;;;;;4993476;28;20050;-73
2021/06/01 08:25:58;;;;;;;5.88;3.83;;;28.50;58.10;;;;;;4993025;28;20047;-73
2021/06/01 08:28:24;;;;;;;7.78;3.85;;;28.80;57.40;;;;;;4993325;28;20054;-73
2021/06/01 08:30:52;;;;;;;4.88;4.43;;;29.40;55.70;;;;;;5011278;28;20104;-74
2021/06/01 08:33:20;;;;;;;4.88;3.63;;;29.10;54.70;;;;;;5019502;28;20046;-75
2021/06/01 08:35:46;;;;;;;9.82;5.55;;;29.30;55.20;;;;;;4995039;28;20050;-73
2021/06/01 08:38:13;;;;;;;5.32;4.60;;;29.40;53.90;;;;;;5008192;28;20050;-73
2021/06/01 08:40:39;;;;;;;4.75;4.30;;;29.40;54.50;;;;;;5017475;28;20395;-73
2021/06/01 08:43:16;;;;;;;4.80;3.80;;;29.50;53.90;;;;;;5012887;28;20124;-72
2021/06/01 08:45:48;;;;;;;4.38;3.97;;;30.00;53.70;;;;;;5012561;28;20096;-73
2021/06/01 08:48:15;;;;;;;4.85;4.35;;;29.40;51.90;;;;;;5012774;28;20050;-73
2021/06/01 08:50:45;;;;;;;5.82;3.50;;;29.70;51.50;;;;;;5012862;28;20042;-72
2021/06/01 08:53:11;;;;;;;4.65;4.07;;;29.10;51.20;;;;;;5012309;28;20038;-72
2021/06/01 08:55:37;;;;;;;3.78;3.30;;;28.60;52.20;;;;;;5012257;28;20112;-72
2021/06/01 08:58:04;;;;;;;3.55;2.97;;;28.20;53.50;;;;;;5012212;28;20057;-73
2021/06/01 09:00:30;;;;;;;4.32;3.92;;;27.90;53.50;;;;;;5012980;28;20046;-72
2021/06/01 09:03:07;;;;;;;5.07;3.60;;;27.60;55.10;;;;;;5013066;28;20061;-73
2021/06/01 09:05:33;;;;;;;4.80;3.90;;;27.20;53.80;;;;;;5012450;28;20061;-73
2021/06/01 09:08:03;;;;;;;10.35;6.63;;;27.30;56.10;;;;;;5011707;28;20108;-72
2021/06/01 09:10:41;;;;;;;5.15;4.57;;;27.30;56.30;;;;;;5012738;28;20111;-73
2021/06/01 09:13:34;;;;;;;11.80;7.57;;;27.20;53.30;;;;;;5012870;28;20714;-72
2021/06/01 09:21:45;;;;;;;4.05;3.00;;;28.20;52.20;;;;;;5005931;28;20065;-73
2021/06/01 09:24:14;;;;;;;3.15;2.50;;;29.60;49.60;;;;;;4997868;28;20046;-73
2021/06/01 09:27:03;;;;;;;3.55;3.05;;;30.70;46.90;;;;;;4996993;28;20046;-73
2021/06/01 09:29:31;;;;;;;6.93;4.63;;;31.50;44.40;;;;;;4997538;28;20132;-73
2021/06/01 09:32:11;;;;;;;5.28;3.67;;;32.50;45.00;;;;;;4998486;28;20050;-72
2021/06/01 09:34:43;;;;;;;3.30;2.65;;;32.90;40.80;;;;;;5004961;28;20046;-72
2021/06/01 09:37:17;;;;;;;5.68;4.57;;;33.20;40.30;;;;;;5015904;28;20057;-72
2021/06/01 09:39:45;;;;;;;3.35;2.30;;;32.90;40.00;;;;;;5015745;28;20042;-72
2021/06/01 09:42:24;;;;;;;4.78;4.30;;;32.40;40.90;;;;;;4997455;28;20051;-72
2021/06/01 09:45:04;;;;;;;9.65;6.53;;;31.50;40.40;;;;;;4996163;28;20058;-72
2021/06/01 09:47:48;;;;;;;3.85;3.30;;;30.60;42.20;;;;;;4996233;28;20081;-72
2021/06/01 09:50:22;;;;;;;4.10;3.70;;;30.10;42.60;;;;;;4996567;28;20105;-73
2021/06/01 09:52:50;;;;;;;3.60;3.15;;;29.10;43.80;;;;;;5008599;28;20073;-73
2021/06/01 09:55:25;;;;;;;8.45;5.95;;;28.80;45.40;;;;;;4996192;28;20109;-72
2021/06/01 09:57:52;;;;;;;5.50;3.83;;;28.90;45.60;;;;;;4996250;28;20050;-72
2021/06/01 10:00:20;;;;;;;4.85;4.15;;;29.30;46.40;;;;;;4995900;28;20711;-72
2021/06/01 10:02:49;;;;;;;5.70;3.33;;;29.30;45.20;;;;;;4996731;28;20050;-72
2021/06/01 10:05:20;;;;;;;4.05;3.00;;;29.50;44.90;;;;;;4996160;28;20050;-72
2021/06/01 10:07:46;;;;;;;;;;;29.30;45.40;;;;;;5015380;28;20042;-72
2021/06/01 10:10:15;;;;;;;4.10;3.40;;;29.30;46.80;;;;;;5015545;28;19975;-72
2021/06/01 10:12:44;;;;;;;4.78;3.97;;;29.40;45.30;;;;;;5003100;28;20069;-72
2021/06/01 10:15:13;;;;;;;9.73;6.63;;;29.30;45.40;;;;;;4995814;28;20509;-72
2021/06/01 10:17:39;;;;;;;5.63;4.35;;;29.00;46.60;;;;;;4998853;28;20069;-72
2021/06/01 10:20:06;;;;;;;7.55;5.50;;;28.60;47.00;;;;;;5015412;28;20498;-72
2021/06/01 10:22:33;;;;;;;6.55;4.53;;;28.50;48.60;;;;;;5015537;28;20053;-72
2021/06/01 10:24:59;;;;;;;17.55;10.50;;;28.40;48.40;;;;;;5015280;28;20050;-72
2021/06/01 10:27:27;;;;;;;5.18;4.65;;;28.70;50.00;;;;;;5012841;28;20048;-72
2021/06/01 10:29:55;;;;;;;10.45;5.00;;;28.60;50.20;;;;;;5014395;28;20050;-72
2021/06/01 10:32:22;;;;;;;11.85;6.78;;;28.90;49.50;;;;;;5014829;28;20046;-72
2021/06/01 10:34:50;;;;;;;5.40;3.90;;;29.20;49.00;;;;;;5014062;28;20046;-72
2021/06/01 10:43:40;;;;;;;5.60;3.22;;;28.90;46.50;;;;;;5014668;28;20053;-72
2021/06/01 10:52:11;;;;;;;5.80;3.78;;;29.70;43.60;;;;;;5012513;28;20398;-72
2021/06/01 10:54:53;;;;;;;6.15;3.75;;;30.10;44.40;;;;;;5012766;28;20054;-72
2021/06/01 10:57:20;;;;;;;3.70;2.85;;;30.10;44.20;;;;;;5014403;28;20045;-72
2021/06/01 11:01:49;;;;;;;6.75;4.50;;;29.70;43.90;;;;;;5014593;28;20057;-73
2021/06/01 11:03:03;;;;;;;3.47;2.80;;;29.80;45.10;;;;;;5014086;28;20050;-73
2021/06/01 11:05:29;;;;;;;5.45;3.58;;;29.50;44.70;;;;;;5011594;28;20054;-74
2021/06/01 11:07:56;;;;;;;6.25;4.38;;;29.30;46.10;;;;;;4994421;28;20050;-73
2021/06/01 11:10:40;;;;;;;6.47;4.60;;;29.20;44.80;;;;;;4994596;28;20078;-73
2021/06/01 11:13:07;;;;;;;4.75;3.10;;;29.40;46.20;;;;;;4994571;28;20039;-72
2021/06/01 11:15:36;;;;;;;6.13;5.20;;;29.50;45.50;;;;;;4994238;28;20498;-72
2021/06/01 11:18:23;;;;;;;4.03;3.67;;;29.50;46.50;;;;;;4994533;28;20042;-73
2021/06/01 11:35:33;;;;;;;6.45;4.50;;;29.70;43.80;;;;;;4997909;28;20047;-73
2021/06/01 11:38:04;;;;;;;4.97;2.85;;;29.70;45.40;;;;;;4998922;28;20046;-72
2021/06/01 11:40:36;;;;;;;7.28;6.35;;;29.60;44.30;;;;;;4993958;28;20073;-73
2021/06/01 11:43:10;;;;;;;2.50;2.30;;;29.50;45.20;;;;;;4993660;28;20073;-72
2021/06/01 11:45:52;;;;;;;4.50;4.10;;;29.30;44.70;;;;;;4993739;28;20046;-72
2021/06/01 11:50:56;;;;;;;3.38;3.08;;;29.00;44.90;;;;;;4993790;28;20050;-72
2021/06/01 11:51:19;;;;;;;5.30;3.40;;;29.10;44.70;;;;;;4993573;28;20046;-72
2021/06/01 11:53:56;;;;;;;6.78;4.80;;;29.20;45.40;;;;;;4999566;28;20132;-72
2021/06/01 11:56:59;;;;;;;6.88;4.00;;;28.80;46.00;;;;;;5013273;28;20056;-72
2021/06/01 12:02:17;;;;;;;3.95;3.38;;;28.50;46.00;;;;;;5003754;28;20060;-73
2021/06/01 12:04:49;;;;;;;3.60;3.15;;;28.70;46.60;;;;;;4993463;28;20046;-73
2021/06/01 12:13:07;;;;;;;6.60;5.60;;;29.50;46.20;;;;;;4993428;28;20710;-73
2021/06/01 12:18:24;;;;;;;5.60;5.03;;;30.60;43.80;;;;;;4993352;28;20138;-71
2021/06/01 12:20:50;;;;;;;2.80;2.40;;;31.40;41.00;;;;;;4993452;28;20054;-72
2021/06/01 12:23:29;;;;;;;3.15;2.60;;;32.00;39.80;;;;;;4993281;28;20042;-72
2021/06/01 12:26:10;;;;;;;5.63;2.90;;;32.60;35.40;;;;;;4993057;28;20046;-72
2021/06/01 12:32:04;;;;;;;2.13;2.00;;;33.20;34.60;;;;;;5012445;28;20069;-72
2021/06/01 12:34:43;;;;;;;2.35;2.15;;;32.80;34.40;;;;;;5012510;28;20052;-72
2021/06/01 12:41:40;;;;;;;3.40;3.03;;;32.60;35.70;;;;;;5012297;28;20046;-73
2021/06/01 12:43:02;;;;;;;1.77;1.58;;;32.90;34.50;;;;;;4992380;28;20132;-73
2021/06/01 13:09:15;;;;;;;2.08;1.88;;;32.40;34.00;;;;;;5015927;28;20092;-74
2021/06/01 13:12:08;;;;;;;2.45;2.05;;;32.50;33.80;;;;;;5019331;28;20057;-73
2021/06/01 13:14:45;;;;;;;5.50;1.50;;;32.40;32.70;;;;;;5016609;28;20589;-74
2021/06/01 13:19:57;;;;;;;3.92;2.60;;;31.70;33.70;;;;;;4980151;28;20042;-73
2021/06/01 13:22:39;;;;;;;3.17;2.28;;;31.90;32.00;;;;;;5013752;28;20049;-73
2021/06/01 13:31:05;;;;;;;1.63;1.33;;;31.40;34.20;;;;;;5013917;28;20076;-75
2021/06/01 13:36:38;;;;;;;1.70;1.60;;;31.70;32.50;;;;;;5017784;28;20046;-71
2021/06/01 13:39:27;;;;;;;4.47;1.48;;;31.50;31.90;;;;;;5011053;28;20054;-72
2021/06/01 13:47:26;;;;;;;1.60;1.50;;;31.10;32.20;;;;;;5016849;28;20129;-73
2021/06/01 13:49:55;;;;;;;0.90;0.90;;;30.60;30.90;;;;;;5018520;28;20096;-72
2021/06/01 13:55:15;;;;;;;2.97;1.60;;;29.00;33.20;;;;;;5018387;28;20057;-75
2021/06/01 13:57:52;;;;;;;3.55;1.98;;;28.80;33.90;;;;;;5017967;28;20092;-70
2021/06/01 14:00:34;;;;;;;2.45;1.20;;;28.50;33.20;;;;;;5018524;28;20045;-72
2021/06/01 14:20:00;;;;;;;2.45;2.25;;;28.20;37.90;;;;;;5013581;28;20053;-71
2021/06/01 14:39:20;;;;;;;2.08;1.30;;;27.40;39.10;;;;;;5000918;28;20096;-72
2021/06/01 15:04:41;;;;;;;2.25;1.33;;;26.60;40.70;;;;;;5010188;28;20042;-71
2021/06/01 15:10:19;;;;;;;3.50;1.88;;;26.60;40.10;;;;;;4984601;28;20046;-72
2021/06/01 15:29:46;;;;;;;4.05;2.40;;;26.40;48.30;;;;;;4994370;28;20057;-71
2021/06/01 15:32:16;;;;;;;8.25;5.20;;;26.20;48.50;;;;;;4994636;28;20053;-71
2021/06/01 15:54:14;;;;;;;4.13;3.30;;;24.00;59.60;;;;;;4994532;28;20165;-72
2021/06/01 16:11:31;;;;;;;3.92;3.22;;;22.30;63.10;;;;;;4993730;28;20064;-71
2021/06/01 16:14:03;;;;;;;4.72;3.85;;;22.20;63.20;;;;;;4994162;28;20057;-70
2021/06/01 16:22:20;;;;;;;3.90;2.97;;;22.10;63.50;;;;;;5013244;28;20192;-72
2021/06/01 16:30:26;;;;;;;4.82;3.58;;;22.00;65.70;;;;;;5002446;28;20107;-72
2021/06/01 16:33:14;;;;;;;6.07;4.00;;;21.80;66.00;;;;;;5013406;28;20049;-71
2021/06/01 16:41:44;;;;;;;8.40;4.30;;;21.70;68.70;;;;;;4952575;28;20047;-72
2021/06/01 16:44:18;;;;;;;4.20;3.55;;;21.70;68.90;;;;;;4991496;28;20078;-71
2021/06/01 17:03:34;;;;;;;6.13;4.05;;;21.30;73.40;;;;;;5008104;28;20104;-72